Terminal Aerodrome Forecast
Issued by NWS

Home | Current Version | Previous Version | Text Only | Print | Product List | Glossary On
Versions: 1 2 3 4 5 6 7 8 9 10 11 12 13 14 15 16 17 18 19 20 21 22 23 24 25 26 27 28 29 30 31 32 33 34 35
976
FTUS45 KBOU 231735
TAFBJC
TAF
KBJC 231735Z 2318/2418 12010KT P6SM VCTS SCT060CB BKN120
      TEMPO 2318/2321 VRB18G30KT -TSRA BKN060CB
     FM232200 02012KT P6SM SCT060 BKN120
     FM240200 35008KT P6SM SCT120
     FM240500 33006KT P6SM SCT220=

USA.gov is the U.S. government's official web portal to all federal, state and local government web resources and services.